createdAt,value
2023-05-11T00:03:10.539Z,1.95
2023-05-11T00:07:13.819Z,1.73
2023-05-11T00:11:18.786Z,1.80
2023-05-11T00:15:22.414Z,1.95
2023-05-11T00:19:25.426Z,1.58
2023-05-11T00:23:28.425Z,1.90
2023-05-11T00:27:32.801Z,2.15
2023-05-11T00:31:35.955Z,2.05
2023-05-11T00:35:39.254Z,1.70
2023-05-11T00:39:42.307Z,1.80
2023-05-11T00:43:46.872Z,2.00
2023-05-11T00:47:49.969Z,1.80
2023-05-11T00:51:53.148Z,1.75
2023-05-11T00:55:56.238Z,2.03
2023-05-11T01:00:02.658Z,1.88
2023-05-11T01:04:06.610Z,2.05
2023-05-11T01:08:14.382Z,1.77
2023-05-11T01:12:27.857Z,2.15
2023-05-11T01:16:39.312Z,1.88
2023-05-11T01:20:47.957Z,1.90
2023-05-11T01:25:06.774Z,2.13
2023-05-11T01:29:44.203Z,1.90
2023-05-11T01:33:55.301Z,2.25
2023-05-11T01:38:00.850Z,1.77
2023-05-11T01:42:09.712Z,1.98
2023-05-11T01:46:15.672Z,1.48
2023-05-11T01:50:22.561Z,2.00
2023-05-11T01:54:26.587Z,1.92
2023-05-11T01:58:31.065Z,1.80
2023-05-11T02:02:35.379Z,2.20
2023-05-11T02:06:42.220Z,1.88
2023-05-11T02:10:47.786Z,2.15
2023-05-11T02:14:53.664Z,2.00
2023-05-11T02:18:58.877Z,2.00
2023-05-11T02:23:04.542Z,1.70
2023-05-11T02:27:07.735Z,1.90
2023-05-11T02:31:17.825Z,1.80
2023-05-11T02:35:25.168Z,2.10
2023-05-11T02:39:34.643Z,1.80
2023-05-11T02:43:43.405Z,2.10
2023-05-11T02:47:53.290Z,2.35
2023-05-11T02:52:02.270Z,2.10
2023-05-11T02:56:09.712Z,1.90
2023-05-11T03:00:14.462Z,2.10
2023-05-11T03:04:18.579Z,2.13
2023-05-11T03:08:21.739Z,1.90
2023-05-11T03:12:31.500Z,2.05
2023-05-11T03:16:38.538Z,1.90
2023-05-11T03:20:45.783Z,1.70
2023-05-11T03:24:49.660Z,1.92
2023-05-11T03:28:55.188Z,2.10
2023-05-11T03:32:58.594Z,2.05
2023-05-11T03:37:03.178Z,2.47
2023-05-11T03:41:06.358Z,2.28
2023-05-11T03:45:17.701Z,2.22
2023-05-11T03:49:21.538Z,2.45
2023-05-11T03:53:25.674Z,2.20
2023-05-11T03:57:29.279Z,2.08
2023-05-11T04:01:34.333Z,2.40
2023-05-11T04:05:37.471Z,2.13
2023-05-11T04:09:43.180Z,2.25
2023-05-11T04:13:46.285Z,2.00
2023-05-11T04:17:51.534Z,2.03
2023-05-11T04:21:54.609Z,1.80
2023-05-11T04:25:57.797Z,2.20
2023-05-11T04:30:00.821Z,1.88
2023-05-11T04:34:09.033Z,2.30
2023-05-11T04:38:13.589Z,2.00
2023-05-11T04:42:16.792Z,2.30
2023-05-11T04:46:23.854Z,2.38
2023-05-11T04:50:29.543Z,2.33
2023-05-11T04:54:33.346Z,2.30
2023-05-11T04:58:36.616Z,2.50
2023-05-11T05:02:39.753Z,2.55
2023-05-11T05:06:44.195Z,2.75
2023-05-11T05:10:48.536Z,2.85
2023-05-11T05:14:51.749Z,2.65
2023-05-11T05:18:55.013Z,2.72
2023-05-11T05:23:00.079Z,2.58
2023-05-11T05:27:03.212Z,2.67
2023-05-11T05:31:06.442Z,2.55
2023-05-11T05:35:10.749Z,2.38
2023-05-11T05:39:15.673Z,2.70
2023-05-11T05:43:18.803Z,2.10
2023-05-11T05:47:22.379Z,2.65
2023-05-11T05:51:25.680Z,2.33
2023-05-11T05:55:30.361Z,2.60
2023-05-11T05:59:34.458Z,2.20
2023-05-11T06:03:38.702Z,2.13
2023-05-11T06:07:42.022Z,2.35
2023-05-11T06:11:46.525Z,2.17
2023-05-11T06:15:49.790Z,2.15
2023-05-11T06:20:08.132Z,2.13
2023-05-11T06:24:12.076Z,2.00
2023-05-11T06:28:19.306Z,2.20
2023-05-11T06:32:22.491Z,2.17
2023-05-11T06:36:25.636Z,1.90
2023-05-11T06:40:29.281Z,2.22
2023-05-11T06:44:34.306Z,2.00
2023-05-11T06:48:37.652Z,2.33
2023-05-11T06:52:40.676Z,2.15
2023-05-11T06:56:43.862Z,2.47
2023-05-11T07:00:48.573Z,2.30
2023-05-11T07:04:51.692Z,2.20
2023-05-11T07:08:54.735Z,2.20
2023-05-11T07:12:57.779Z,1.98
2023-05-11T07:17:02.329Z,2.30
2023-05-11T07:21:05.461Z,2.28
2023-05-11T07:25:10.459Z,2.17
2023-05-11T07:29:13.517Z,2.13
2023-05-11T07:33:17.957Z,2.30
2023-05-11T07:37:21.030Z,2.10
2023-05-11T07:41:26.862Z,2.17
2023-05-11T07:45:29.951Z,2.33
2023-05-11T07:49:42.922Z,2.42
2023-05-11T07:53:47.208Z,2.45
2023-05-11T07:57:50.253Z,2.40
2023-05-11T08:01:53.485Z,2.50
2023-05-11T08:05:58.180Z,2.50
2023-05-11T08:10:01.294Z,2.45
2023-05-11T08:14:04.767Z,2.58
2023-05-11T08:18:08.230Z,2.55
2023-05-11T08:22:12.760Z,2.40
2023-05-11T08:26:16.471Z,2.30
2023-05-11T08:30:19.940Z,2.53
2023-05-11T08:34:23.520Z,2.20
2023-05-11T08:38:28.012Z,2.45
2023-05-11T08:42:35.151Z,2.50
2023-05-11T08:46:42.920Z,2.30
2023-05-11T08:50:46.734Z,2.20
2023-05-11T08:54:51.136Z,2.40
2023-05-11T08:58:56.173Z,2.20
2023-05-11T09:02:59.659Z,2.30
2023-05-11T09:07:02.740Z,2.15
2023-05-11T09:11:07.963Z,2.13
2023-05-11T09:15:12.306Z,2.05
2023-05-11T09:19:16.730Z,2.08
2023-05-11T09:23:20.473Z,2.00
2023-05-11T09:27:26.150Z,1.90
2023-05-11T09:31:42.855Z,1.90
2023-05-11T09:35:46.050Z,1.85
2023-05-11T09:40:12.978Z,1.60
2023-05-11T09:44:20.476Z,2.00
2023-05-11T09:48:29.641Z,2.67
2023-05-11T09:52:32.929Z,1.85
2023-05-11T09:56:49.597Z,1.92
2023-05-11T10:00:54.838Z,1.90
2023-05-11T10:04:59.465Z,1.80
2023-05-11T10:09:10.045Z,1.63
2023-05-11T10:13:13.203Z,1.75
2023-05-11T10:17:18.322Z,1.60
2023-05-11T10:21:21.841Z,1.80
2023-05-11T10:25:26.578Z,1.67
2023-05-11T10:29:30.768Z,1.80
2023-05-11T10:33:36.583Z,1.67
2023-05-11T10:37:41.566Z,1.75
2023-05-11T10:41:54.367Z,2.00
2023-05-11T10:46:09.464Z,1.90
2023-05-11T10:50:30.527Z,1.60
2023-05-11T10:54:47.629Z,1.80
2023-05-11T10:59:07.584Z,1.70
2023-05-11T11:03:12.495Z,1.70
2023-05-11T11:07:18.760Z,1.63
2023-05-11T11:11:36.006Z,1.50
2023-05-11T11:16:16.200Z,1.85
2023-05-11T11:20:48.816Z,1.70
2023-05-11T11:24:53.282Z,1.63
2023-05-11T11:29:12.370Z,1.95
2023-05-11T11:33:35.618Z,1.70
2023-05-11T11:38:03.091Z,1.52
2023-05-11T11:42:09.486Z,1.63
2023-05-11T11:46:27.104Z,1.77
2023-05-11T11:50:30.386Z,1.80
2023-05-11T11:54:40.146Z,1.65
2023-05-11T11:59:01.343Z,1.50
2023-05-11T12:03:05.842Z,1.50
2023-05-11T12:07:11.499Z,1.70
2023-05-11T12:11:19.039Z,1.60
2023-05-11T12:15:27.668Z,1.40
2023-05-11T12:19:30.968Z,1.58
2023-05-11T12:23:34.048Z,1.52
2023-05-11T12:27:37.398Z,1.77
2023-05-11T12:31:43.775Z,1.30
2023-05-11T12:35:47.049Z,1.50
2023-05-11T12:39:55.369Z,1.70
2023-05-11T12:43:58.668Z,1.60
2023-05-11T12:48:04.336Z,1.50
2023-05-11T12:52:09.187Z,1.42
2023-05-11T12:56:12.474Z,1.75
2023-05-11T13:00:18.968Z,1.40
2023-05-11T13:04:33.879Z,1.40
2023-05-11T13:08:37.968Z,1.48
2023-05-11T13:12:49.549Z,1.38
2023-05-11T13:16:55.847Z,1.55
2023-05-11T13:21:09.844Z,1.60
2023-05-11T13:25:13.178Z,1.50
2023-05-11T13:29:16.461Z,1.42
2023-05-11T13:33:19.934Z,1.33
2023-05-11T13:37:24.402Z,1.50
2023-05-11T13:41:27.380Z,1.67
2023-05-11T13:45:30.496Z,1.50
2023-05-11T13:49:33.391Z,1.38
2023-05-11T13:53:37.634Z,1.80
2023-05-11T13:57:40.796Z,1.50
2023-05-11T14:01:43.857Z,1.40
2023-05-11T14:05:49.021Z,1.38
2023-05-11T14:09:53.328Z,1.65
2023-05-11T14:13:56.262Z,1.38
2023-05-11T14:18:00.464Z,1.70
2023-05-11T14:22:03.523Z,1.50
2023-05-11T14:26:07.945Z,1.63
2023-05-11T14:30:11.655Z,1.60
2023-05-11T14:34:14.547Z,1.67
2023-05-11T14:38:17.694Z,1.67
2023-05-11T14:42:22.129Z,1.65
2023-05-11T14:46:26.715Z,1.40
2023-05-11T14:50:30.301Z,1.88
2023-05-11T14:54:33.221Z,1.48
2023-05-11T14:58:37.645Z,1.40
2023-05-11T15:02:40.951Z,1.50
2023-05-11T15:06:44.135Z,1.50
2023-05-11T15:10:47.110Z,1.38
2023-05-11T15:14:51.938Z,1.50
2023-05-11T15:18:55.195Z,1.38
2023-05-11T15:22:58.239Z,1.70
2023-05-11T15:27:01.226Z,1.50
2023-05-11T15:31:05.522Z,1.60
2023-05-11T15:35:09.148Z,1.30
2023-05-11T15:39:12.202Z,1.52
2023-05-11T15:43:15.162Z,1.55
2023-05-11T15:47:19.479Z,1.40
2023-05-11T15:51:22.634Z,1.40
2023-05-11T15:55:25.640Z,1.52
2023-05-11T15:59:28.663Z,1.10
2023-05-11T16:03:33.229Z,1.48
2023-05-11T16:07:36.218Z,1.40
2023-05-11T16:11:39.128Z,1.20
2023-05-11T16:15:42.151Z,1.35
2023-05-11T16:19:46.619Z,1.30
2023-05-11T16:23:49.559Z,1.35
2023-05-11T16:27:52.521Z,1.40
2023-05-11T16:31:55.876Z,1.30
2023-05-11T16:36:00.276Z,1.60
2023-05-11T16:40:04.760Z,1.40
2023-05-11T16:44:07.724Z,1.15
2023-05-11T16:48:10.784Z,1.40
2023-05-11T16:52:15.045Z,1.67
2023-05-11T16:56:18.042Z,1.40
2023-05-11T17:00:21.657Z,1.20
2023-05-11T17:04:25.006Z,1.27
2023-05-11T17:08:29.617Z,1.40
2023-05-11T17:12:35.575Z,1.35
2023-05-11T17:16:38.680Z,1.50
2023-05-11T17:20:42.072Z,1.30
2023-05-11T17:24:46.792Z,1.30
2023-05-11T17:28:49.806Z,1.40
2023-05-11T17:32:53.083Z,1.20
2023-05-11T17:36:56.641Z,1.40
2023-05-11T17:41:04.765Z,1.25
2023-05-11T17:45:09.508Z,1.30
2023-05-11T17:49:12.427Z,1.45
2023-05-11T17:53:15.403Z,1.40
2023-05-11T17:57:19.687Z,1.33
2023-05-11T18:01:22.848Z,1.33
2023-05-11T18:05:33.361Z,1.20
2023-05-11T18:09:39.758Z,1.30
2023-05-11T18:13:44.035Z,1.60
2023-05-11T18:17:47.006Z,1.30
2023-05-11T18:21:51.938Z,1.20
2023-05-11T18:25:55.165Z,1.80
2023-05-11T18:29:59.510Z,2.20
2023-05-11T18:34:02.416Z,1.98
2023-05-11T18:38:05.398Z,2.20
2023-05-11T18:42:08.499Z,2.30
2023-05-11T18:46:12.821Z,2.17
2023-05-11T18:50:15.992Z,1.83
2023-05-11T18:54:18.919Z,2.53
2023-05-11T18:58:22.466Z,2.40
2023-05-11T19:02:26.839Z,2.28
2023-05-11T19:06:29.955Z,2.10
2023-05-11T19:10:32.922Z,2.10
2023-05-11T19:14:37.407Z,2.17
2023-05-11T19:18:41.703Z,2.35
2023-05-11T19:22:44.899Z,2.13
2023-05-11T19:27:02.559Z,1.95
2023-05-11T19:31:09.344Z,1.92
2023-05-11T19:35:14.754Z,1.95
2023-05-11T19:39:18.034Z,2.03
2023-05-11T19:43:20.983Z,2.17
2023-05-11T19:47:23.905Z,2.15
2023-05-11T19:51:28.211Z,2.55
2023-05-11T19:55:31.309Z,2.17
2023-05-11T19:59:34.261Z,2.60
2023-05-11T20:03:37.334Z,2.15
2023-05-11T20:07:41.805Z,2.20
2023-05-11T20:11:44.809Z,2.30
2023-05-11T20:15:48.868Z,2.20
2023-05-11T20:19:51.901Z,2.00
2023-05-11T20:23:56.664Z,2.08
2023-05-11T20:27:59.645Z,2.25
2023-05-11T20:32:02.829Z,2.20
2023-05-11T20:36:06.338Z,2.28
2023-05-11T20:40:14.578Z,2.25
2023-05-11T20:44:19.720Z,2.10
2023-05-11T20:48:32.464Z,1.98
2023-05-11T20:52:42.541Z,2.15
2023-05-11T20:56:47.365Z,2.15
2023-05-11T21:00:50.363Z,2.63
2023-05-11T21:04:54.081Z,2.17
2023-05-11T21:08:57.142Z,1.90
2023-05-11T21:13:01.888Z,2.47
2023-05-11T21:17:04.850Z,2.45
2023-05-11T21:21:09.156Z,2.22
2023-05-11T21:25:16.057Z,2.50
2023-05-11T21:29:20.566Z,2.05
2023-05-11T21:33:23.725Z,2.28
2023-05-11T21:37:26.913Z,2.17
2023-05-11T21:41:29.922Z,2.00
2023-05-11T21:45:36.876Z,2.00
2023-05-11T21:49:39.852Z,2.40
2023-05-11T21:53:42.766Z,2.13
2023-05-11T21:57:45.705Z,2.35
2023-05-11T22:01:50.003Z,2.20
2023-05-11T22:05:52.909Z,2.47
2023-05-11T22:09:56.041Z,2.60
2023-05-11T22:13:59.054Z,2.15
2023-05-11T22:18:07.408Z,2.00
2023-05-11T22:22:10.380Z,2.30
2023-05-11T22:26:13.322Z,2.08
2023-05-11T22:30:16.498Z,2.42
2023-05-11T22:34:22.044Z,2.08
2023-05-11T22:38:24.994Z,2.33
2023-05-11T22:42:30.668Z,1.90
2023-05-11T22:46:33.658Z,2.20
2023-05-11T22:50:37.920Z,1.90
2023-05-11T22:54:40.864Z,2.13
2023-05-11T22:58:43.756Z,2.20
2023-05-11T23:02:47.185Z,1.88
2023-05-11T23:06:51.533Z,1.90
2023-05-11T23:10:54.679Z,2.08
2023-05-11T23:14:57.589Z,2.00
2023-05-11T23:19:02.361Z,1.95
2023-05-11T23:23:06.683Z,2.05
2023-05-11T23:27:09.733Z,2.20
2023-05-11T23:31:12.689Z,2.05
2023-05-11T23:35:15.857Z,2.20
2023-05-11T23:39:35.497Z,2.00
2023-05-11T23:43:38.510Z,2.22
2023-05-11T23:47:41.439Z,2.33
2023-05-11T23:51:44.509Z,2.00
2023-05-11T23:55:49.295Z,2.33
2023-05-11T23:59:52.237Z,2.15
